TOM910 EGKK-EGPH
Flight info
| Callsign | TOM910 |
|---|---|
| Flight time | 0h 53m |
| Altitude | 34000 |
| Route | LAM L10 BPK UN601 RIBEL DCT INPIP |
| Aircraft | B738/M-SDE2E3FGHIRWXY/LB1 |
Departure
| Time | 2026-05-05 19:11 |
|---|---|
| Airport | London Gatwick Airport (EGKK) |
Arrival
| Time | 2026-05-05 20:05 |
|---|---|
| Airport | Edinburgh Airport (EGPH) |
| Time | Latitude | Longitude | Altitude | Speed | Heading |
|---|---|---|---|---|---|
| 2026-05-05 18:51 | 51.15397 | -0.18021 | 209 ft | 0 kts | 167° |
| 2026-05-05 19:01 | 51.15401 | -0.18023 | 215 ft | 4 kts | 168° |
| 2026-05-05 19:02 | 51.15428 | -0.18029 | 213 ft | 4 kts | 179° |
| 2026-05-05 19:02 | 51.15454 | -0.18025 | 213 ft | 4 kts | 202° |
| 2026-05-05 19:02 | 51.15471 | -0.18004 | 216 ft | 2 kts | 256° |
| 2026-05-05 19:02 | 51.15472 | -0.18000 | 216 ft | 1 kts | 257° |
| 2026-05-05 19:04 | 51.15472 | -0.18003 | 216 ft | 1 kts | 258° |
| 2026-05-05 19:05 | 51.15463 | -0.18064 | 214 ft | 9 kts | 258° |
| 2026-05-05 19:05 | 51.15446 | -0.18197 | 208 ft | 14 kts | 258° |
| 2026-05-05 19:05 | 51.15386 | -0.18280 | 204 ft | 13 kts | 170° |
| 2026-05-05 19:05 | 51.15298 | -0.18248 | 212 ft | 13 kts | 167° |
| 2026-05-05 19:06 | 51.15212 | -0.18228 | 210 ft | 13 kts | 202° |
| 2026-05-05 19:06 | 51.15183 | -0.18354 | 210 ft | 13 kts | 258° |
| 2026-05-05 19:06 | 51.15162 | -0.18511 | 212 ft | 16 kts | 258° |
| 2026-05-05 19:06 | 51.15137 | -0.18699 | 207 ft | 19 kts | 258° |
| 2026-05-05 19:07 | 51.15105 | -0.18924 | 207 ft | 22 kts | 257° |
| 2026-05-05 19:07 | 51.15084 | -0.19086 | 210 ft | 23 kts | 258° |
| 2026-05-05 19:07 | 51.15039 | -0.19417 | 206 ft | 22 kts | 258° |
| 2026-05-05 19:07 | 51.15005 | -0.19656 | 207 ft | 22 kts | 257° |
| 2026-05-05 19:08 | 51.14973 | -0.19889 | 208 ft | 21 kts | 257° |
| 2026-05-05 19:08 | 51.14942 | -0.20115 | 215 ft | 21 kts | 257° |
| 2026-05-05 19:08 | 51.14910 | -0.20334 | 207 ft | 20 kts | 257° |
| 2026-05-05 19:08 | 51.14881 | -0.20546 | 213 ft | 19 kts | 258° |
| 2026-05-05 19:09 | 51.14854 | -0.20749 | 210 ft | 19 kts | 258° |
| 2026-05-05 19:09 | 51.14827 | -0.20950 | 213 ft | 18 kts | 258° |
| 2026-05-05 19:09 | 51.14797 | -0.21138 | 213 ft | 17 kts | 250° |
| 2026-05-05 19:09 | 51.14765 | -0.21320 | 204 ft | 17 kts | 257° |
| 2026-05-05 19:10 | 51.14681 | -0.21391 | 204 ft | 16 kts | 147° |
| 2026-05-05 19:10 | 51.14618 | -0.21333 | 210 ft | 16 kts | 161° |
| 2026-05-05 19:10 | 51.14520 | -0.21190 | 210 ft | 15 kts | 95° |
| 2026-05-05 19:10 | 51.14558 | -0.20894 | 210 ft | 60 kts | 77° |
| 2026-05-05 19:11 | 51.14644 | -0.20267 | 211 ft | 113 kts | 77° |
| 2026-05-05 19:11 | 51.14877 | -0.18670 | 241 ft | 179 kts | 76° |
| 2026-05-05 19:11 | 51.15160 | -0.16668 | 1160 ft | 184 kts | 78° |
| 2026-05-05 19:11 | 51.15427 | -0.14625 | 2126 ft | 194 kts | 77° |
| 2026-05-05 19:12 | 51.15723 | -0.12432 | 2623 ft | 213 kts | 76° |
| 2026-05-05 19:12 | 51.16043 | -0.10137 | 2944 ft | 230 kts | 76° |
| 2026-05-05 19:12 | 51.16400 | -0.07643 | 3550 ft | 236 kts | 72° |
| 2026-05-05 19:12 | 51.17184 | -0.05378 | 4268 ft | 237 kts | 50° |
| 2026-05-05 19:13 | 51.18248 | -0.03235 | 4809 ft | 253 kts | 50° |
| 2026-05-05 19:13 | 51.19353 | -0.00979 | 4985 ft | 260 kts | 50° |
| 2026-05-05 19:13 | 51.20457 | 0.01292 | 5067 ft | 257 kts | 50° |
| 2026-05-05 19:13 | 51.21542 | 0.03533 | 5070 ft | 255 kts | 50° |
| 2026-05-05 19:14 | 51.22635 | 0.05797 | 5085 ft | 256 kts | 50° |
| 2026-05-05 19:14 | 51.23726 | 0.08060 | 5172 ft | 260 kts | 50° |
| 2026-05-05 19:14 | 51.24799 | 0.10408 | 5820 ft | 266 kts | 58° |
| 2026-05-05 19:14 | 51.25362 | 0.13256 | 6090 ft | 272 kts | 78° |
| 2026-05-05 19:15 | 51.25683 | 0.16242 | 6789 ft | 274 kts | 77° |
| 2026-05-05 19:15 | 51.26033 | 0.19211 | 7687 ft | 274 kts | 73° |
| 2026-05-05 19:15 | 51.26865 | 0.21887 | 8448 ft | 276 kts | 47° |
| 2026-05-05 19:15 | 51.28398 | 0.23687 | 9278 ft | 276 kts | 20° |
| 2026-05-05 19:16 | 51.30284 | 0.24200 | 10043 ft | 280 kts | 357° |
| 2026-05-05 19:16 | 51.32232 | 0.23889 | 10756 ft | 284 kts | 352° |
| 2026-05-05 19:16 | 51.34199 | 0.23438 | 11404 ft | 285 kts | 351° |
| 2026-05-05 19:16 | 51.36182 | 0.22962 | 12154 ft | 290 kts | 351° |
| 2026-05-05 19:17 | 51.38188 | 0.22472 | 12740 ft | 292 kts | 351° |
| 2026-05-05 19:17 | 51.40204 | 0.21975 | 12967 ft | 297 kts | 351° |
| 2026-05-05 19:17 | 51.42268 | 0.21463 | 12939 ft | 301 kts | 351° |
| 2026-05-05 19:17 | 51.44337 | 0.20948 | 12927 ft | 302 kts | 351° |
| 2026-05-05 19:18 | 51.46455 | 0.20419 | 13081 ft | 323 kts | 351° |
| 2026-05-05 19:18 | 51.48679 | 0.19209 | 13164 ft | 348 kts | 328° |
| 2026-05-05 19:18 | 51.50697 | 0.16925 | 13505 ft | 363 kts | 324° |
| 2026-05-05 19:18 | 51.52744 | 0.14519 | 13912 ft | 374 kts | 324° |
| 2026-05-05 19:19 | 51.54888 | 0.12123 | 14646 ft | 374 kts | 326° |
| 2026-05-05 19:19 | 51.57078 | 0.09817 | 15280 ft | 378 kts | 328° |
| 2026-05-05 19:19 | 51.59328 | 0.07565 | 15849 ft | 383 kts | 329° |
| 2026-05-05 19:19 | 51.61614 | 0.05360 | 16501 ft | 386 kts | 329° |
| 2026-05-05 19:20 | 51.63950 | 0.03159 | 17088 ft | 391 kts | 330° |
| 2026-05-05 19:20 | 51.66311 | 0.00965 | 17745 ft | 393 kts | 330° |
| 2026-05-05 19:20 | 51.68673 | -0.01214 | 18394 ft | 397 kts | 330° |
| 2026-05-05 19:20 | 51.71116 | -0.03463 | 18877 ft | 400 kts | 330° |
| 2026-05-05 19:21 | 51.73501 | -0.05658 | 18982 ft | 402 kts | 330° |
| 2026-05-05 19:21 | 51.75932 | -0.07896 | 18999 ft | 401 kts | 330° |
| 2026-05-05 19:21 | 51.78235 | -0.10020 | 18997 ft | 402 kts | 330° |
| 2026-05-05 19:21 | 51.80668 | -0.12266 | 19004 ft | 401 kts | 329° |
| 2026-05-05 19:22 | 51.83095 | -0.14509 | 18981 ft | 406 kts | 329° |
| 2026-05-05 19:22 | 51.85554 | -0.16787 | 19521 ft | 406 kts | 328° |
| 2026-05-05 19:22 | 51.88010 | -0.19064 | 20161 ft | 407 kts | 329° |
| 2026-05-05 19:22 | 51.90470 | -0.21349 | 20682 ft | 409 kts | 328° |
| 2026-05-05 19:23 | 51.92918 | -0.23626 | 21181 ft | 412 kts | 328° |
| 2026-05-05 19:23 | 51.95416 | -0.25951 | 21726 ft | 414 kts | 328° |
| 2026-05-05 19:23 | 51.97925 | -0.28289 | 22205 ft | 417 kts | 328° |
| 2026-05-05 19:23 | 52.00457 | -0.30651 | 22689 ft | 420 kts | 328° |
| 2026-05-05 19:24 | 52.03000 | -0.33027 | 23184 ft | 422 kts | 328° |
| 2026-05-05 19:24 | 52.05556 | -0.35418 | 23646 ft | 424 kts | 328° |
| 2026-05-05 19:24 | 52.08125 | -0.37825 | 23963 ft | 429 kts | 328° |
| 2026-05-05 19:24 | 52.10723 | -0.40263 | 24287 ft | 433 kts | 328° |
| 2026-05-05 19:25 | 52.13310 | -0.42694 | 24640 ft | 436 kts | 328° |
| 2026-05-05 19:25 | 52.15945 | -0.45173 | 24997 ft | 438 kts | 328° |
| 2026-05-05 19:25 | 52.18604 | -0.47677 | 25336 ft | 441 kts | 327° |
| 2026-05-05 19:25 | 52.21270 | -0.50193 | 25665 ft | 444 kts | 327° |
| 2026-05-05 19:26 | 52.23956 | -0.52730 | 25986 ft | 447 kts | 327° |
| 2026-05-05 19:26 | 52.26657 | -0.55285 | 26312 ft | 450 kts | 327° |
| 2026-05-05 19:26 | 52.29345 | -0.57832 | 26628 ft | 453 kts | 327° |
| 2026-05-05 19:26 | 52.32089 | -0.60436 | 26881 ft | 457 kts | 327° |
| 2026-05-05 19:27 | 52.34853 | -0.63062 | 27186 ft | 460 kts | 327° |
| 2026-05-05 19:27 | 52.37631 | -0.65705 | 27526 ft | 461 kts | 327° |
| 2026-05-05 19:27 | 52.40412 | -0.68355 | 27827 ft | 464 kts | 327° |
| 2026-05-05 19:27 | 52.43211 | -0.71026 | 28102 ft | 467 kts | 327° |
| 2026-05-05 19:28 | 52.45986 | -0.73678 | 28369 ft | 469 kts | 326° |
| 2026-05-05 19:28 | 52.48821 | -0.76392 | 28692 ft | 470 kts | 326° |
| 2026-05-05 19:28 | 52.51647 | -0.79099 | 29126 ft | 469 kts | 326° |
| 2026-05-05 19:28 | 52.54459 | -0.81797 | 29619 ft | 467 kts | 326° |
| 2026-05-05 19:29 | 52.57263 | -0.84490 | 30054 ft | 466 kts | 326° |
| 2026-05-05 19:29 | 52.60068 | -0.87192 | 30340 ft | 467 kts | 326° |
| 2026-05-05 19:29 | 52.62873 | -0.89896 | 30665 ft | 467 kts | 326° |
| 2026-05-05 19:29 | 52.65662 | -0.92590 | 31067 ft | 464 kts | 326° |
| 2026-05-05 19:30 | 52.68412 | -0.95248 | 31507 ft | 461 kts | 326° |
| 2026-05-05 19:30 | 52.75107 | -1.01738 | 32367 ft | 459 kts | 327° |
| 2026-05-05 19:30 | 52.86025 | -1.12375 | 33961 ft | 449 kts | 327° |
| 2026-05-05 19:30 | 52.96759 | -1.22897 | 34117 ft | 462 kts | 328° |
| 2026-05-05 19:31 | 53.18914 | -1.44807 | 33997 ft | 458 kts | 328° |
| 2026-05-05 19:31 | 53.40426 | -1.66321 | 34005 ft | 441 kts | 327° |
| 2026-05-05 19:32 | 53.61227 | -1.87407 | 34049 ft | 436 kts | 327° |
| 2026-05-05 19:32 | 53.82207 | -2.08894 | 34090 ft | 453 kts | 326° |
| 2026-05-05 19:33 | 53.91558 | -2.18562 | 34045 ft | 449 kts | 326° |
| 2026-05-05 19:33 | 53.96855 | -2.24056 | 34047 ft | 444 kts | 326° |
| 2026-05-05 19:34 | 54.02121 | -2.29428 | 34052 ft | 445 kts | 330° |
| 2026-05-05 19:35 | 54.10740 | -2.35490 | 34072 ft | 447 kts | 336° |
| 2026-05-05 19:35 | 54.16532 | -2.39358 | 34058 ft | 447 kts | 335° |
| 2026-05-05 19:36 | 54.22319 | -2.43325 | 34079 ft | 448 kts | 334° |
| 2026-05-05 19:36 | 54.28113 | -2.47356 | 34062 ft | 449 kts | 334° |
| 2026-05-05 19:37 | 54.33890 | -2.51398 | 34077 ft | 450 kts | 334° |
| 2026-05-05 19:37 | 54.39699 | -2.55471 | 34072 ft | 451 kts | 334° |
| 2026-05-05 19:38 | 54.45525 | -2.59567 | 34077 ft | 451 kts | 334° |
| 2026-05-05 19:38 | 54.48414 | -2.61604 | 33486 ft | 458 kts | 334° |
| 2026-05-05 19:38 | 54.51369 | -2.63690 | 32909 ft | 455 kts | 334° |
| 2026-05-05 19:38 | 54.54287 | -2.65751 | 32180 ft | 455 kts | 334° |
| 2026-05-05 19:39 | 54.57216 | -2.67823 | 31566 ft | 453 kts | 334° |
| 2026-05-05 19:39 | 54.60123 | -2.69884 | 31040 ft | 449 kts | 335° |
| 2026-05-05 19:39 | 54.63010 | -2.71932 | 30541 ft | 445 kts | 335° |
| 2026-05-05 19:39 | 54.65862 | -2.73959 | 30038 ft | 440 kts | 335° |
| 2026-05-05 19:40 | 54.68682 | -2.75967 | 29471 ft | 436 kts | 335° |
| 2026-05-05 19:40 | 54.71431 | -2.77928 | 28989 ft | 430 kts | 335° |
| 2026-05-05 19:40 | 54.74188 | -2.79898 | 28490 ft | 425 kts | 335° |
| 2026-05-05 19:40 | 54.76914 | -2.81849 | 27970 ft | 421 kts | 335° |
| 2026-05-05 19:41 | 54.79603 | -2.83776 | 27517 ft | 415 kts | 335° |
| 2026-05-05 19:41 | 54.82243 | -2.85671 | 26995 ft | 413 kts | 335° |
| 2026-05-05 19:41 | 54.84885 | -2.87569 | 26563 ft | 407 kts | 335° |
| 2026-05-05 19:41 | 54.87497 | -2.89449 | 26045 ft | 405 kts | 335° |
| 2026-05-05 19:42 | 54.90098 | -2.91327 | 25502 ft | 404 kts | 335° |
| 2026-05-05 19:42 | 54.92694 | -2.93208 | 24946 ft | 404 kts | 335° |
| 2026-05-05 19:42 | 54.95294 | -2.95095 | 24402 ft | 403 kts | 335° |
| 2026-05-05 19:42 | 54.97876 | -2.96972 | 23864 ft | 402 kts | 335° |
| 2026-05-05 19:43 | 55.00459 | -2.98851 | 23208 ft | 402 kts | 335° |
| 2026-05-05 19:43 | 55.03036 | -3.00728 | 22610 ft | 399 kts | 335° |
| 2026-05-05 19:43 | 55.05563 | -3.02571 | 22072 ft | 395 kts | 335° |
| 2026-05-05 19:43 | 55.08100 | -3.04425 | 21491 ft | 393 kts | 334° |
| 2026-05-05 19:44 | 55.10608 | -3.06259 | 20987 ft | 389 kts | 334° |
| 2026-05-05 19:44 | 55.13108 | -3.08090 | 20415 ft | 387 kts | 334° |
| 2026-05-05 19:44 | 55.15588 | -3.09908 | 19884 ft | 384 kts | 334° |
| 2026-05-05 19:44 | 55.18027 | -3.11696 | 19297 ft | 384 kts | 334° |
| 2026-05-05 19:45 | 55.20484 | -3.13499 | 18722 ft | 383 kts | 334° |
| 2026-05-05 19:45 | 55.22942 | -3.15304 | 18139 ft | 381 kts | 334° |
| 2026-05-05 19:45 | 55.25388 | -3.17103 | 17483 ft | 380 kts | 334° |
| 2026-05-05 19:45 | 55.27825 | -3.18898 | 16843 ft | 379 kts | 335° |
| 2026-05-05 19:46 | 55.30352 | -3.20230 | 16102 ft | 384 kts | 351° |
| 2026-05-05 19:46 | 55.33007 | -3.20110 | 15611 ft | 384 kts | 2° |
| 2026-05-05 19:46 | 55.35658 | -3.19670 | 14999 ft | 382 kts | 2° |
| 2026-05-05 19:46 | 55.38279 | -3.19211 | 14403 ft | 372 kts | 2° |
| 2026-05-05 19:47 | 55.40813 | -3.18770 | 13818 ft | 361 kts | 2° |
| 2026-05-05 19:47 | 55.43286 | -3.18353 | 13168 ft | 351 kts | 2° |
| 2026-05-05 19:47 | 55.45686 | -3.17962 | 12548 ft | 343 kts | 2° |
| 2026-05-05 19:47 | 55.48034 | -3.17588 | 11914 ft | 336 kts | 2° |
| 2026-05-05 19:48 | 55.50339 | -3.17225 | 11318 ft | 329 kts | 2° |
| 2026-05-05 19:48 | 55.52608 | -3.16869 | 10707 ft | 323 kts | 2° |
| 2026-05-05 19:48 | 55.54827 | -3.16520 | 10130 ft | 318 kts | 2° |
| 2026-05-05 19:48 | 55.56988 | -3.16180 | 9498 ft | 313 kts | 2° |
| 2026-05-05 19:49 | 55.59149 | -3.15841 | 8854 ft | 309 kts | 3° |
| 2026-05-05 19:49 | 55.60560 | -3.15618 | 8450 ft | 306 kts | 3° |
| 2026-05-05 19:49 | 55.63390 | -3.15174 | 7593 ft | 302 kts | 3° |
| 2026-05-05 19:49 | 55.65453 | -3.14847 | 7233 ft | 290 kts | 3° |
| 2026-05-05 19:50 | 55.67373 | -3.14540 | 7189 ft | 270 kts | 3° |
| 2026-05-05 19:50 | 55.69189 | -3.14250 | 7100 ft | 253 kts | 3° |
| 2026-05-05 19:50 | 55.70893 | -3.13979 | 7105 ft | 241 kts | 2° |
| 2026-05-05 19:50 | 55.72559 | -3.13756 | 7104 ft | 239 kts | 356° |
| 2026-05-05 19:51 | 55.74127 | -3.14520 | 7107 ft | 233 kts | 326° |
| 2026-05-05 19:51 | 55.75193 | -3.16610 | 7102 ft | 231 kts | 296° |
| 2026-05-05 19:51 | 55.75487 | -3.19386 | 7138 ft | 229 kts | 272° |
| 2026-05-05 19:51 | 55.75432 | -3.22211 | 7105 ft | 230 kts | 270° |
| 2026-05-05 19:52 | 55.75335 | -3.25001 | 7117 ft | 230 kts | 267° |
| 2026-05-05 19:52 | 55.74848 | -3.27718 | 7114 ft | 234 kts | 244° |
| 2026-05-05 19:52 | 55.74039 | -3.30239 | 7086 ft | 235 kts | 244° |
| 2026-05-05 19:52 | 55.73250 | -3.32758 | 6857 ft | 232 kts | 245° |
| 2026-05-05 19:53 | 55.72474 | -3.35287 | 6412 ft | 235 kts | 244° |
| 2026-05-05 19:53 | 55.71696 | -3.37861 | 5964 ft | 235 kts | 243° |
| 2026-05-05 19:53 | 55.70926 | -3.40430 | 5516 ft | 237 kts | 244° |
| 2026-05-05 19:53 | 55.70162 | -3.43040 | 5078 ft | 241 kts | 244° |
| 2026-05-05 19:54 | 55.69412 | -3.45628 | 5045 ft | 234 kts | 244° |
| 2026-05-05 19:54 | 55.68672 | -3.48232 | 4722 ft | 238 kts | 244° |
| 2026-05-05 19:54 | 55.67927 | -3.50909 | 4177 ft | 245 kts | 244° |
| 2026-05-05 19:54 | 55.67201 | -3.53587 | 4097 ft | 244 kts | 244° |
| 2026-05-05 19:55 | 55.66470 | -3.56312 | 4041 ft | 247 kts | 246° |
| 2026-05-05 19:55 | 55.66093 | -3.59276 | 3984 ft | 246 kts | 276° |
| 2026-05-05 19:55 | 55.66599 | -3.62043 | 4002 ft | 230 kts | 309° |
| 2026-05-05 19:55 | 55.67690 | -3.63934 | 4034 ft | 214 kts | 325° |
| 2026-05-05 19:56 | 55.68842 | -3.65540 | 4013 ft | 211 kts | 326° |
| 2026-05-05 19:56 | 55.70011 | -3.67096 | 4005 ft | 210 kts | 330° |
| 2026-05-05 19:56 | 55.71247 | -3.68473 | 4014 ft | 209 kts | 332° |
| 2026-05-05 19:56 | 55.72461 | -3.69800 | 4006 ft | 200 kts | 332° |
| 2026-05-05 19:57 | 55.73615 | -3.71076 | 4004 ft | 191 kts | 333° |
| 2026-05-05 19:57 | 55.74363 | -3.71891 | 3992 ft | 188 kts | 339° |
| 2026-05-05 19:57 | 55.75577 | -3.72514 | 4032 ft | 178 kts | 359° |
| 2026-05-05 19:57 | 55.76813 | -3.72384 | 4041 ft | 178 kts | 9° |
| 2026-05-05 19:58 | 55.78057 | -3.72159 | 4015 ft | 181 kts | 10° |
| 2026-05-05 19:58 | 55.79312 | -3.71946 | 4017 ft | 182 kts | 9° |
| 2026-05-05 19:58 | 55.80577 | -3.71729 | 4027 ft | 182 kts | 9° |
| 2026-05-05 19:58 | 55.81828 | -3.71520 | 4013 ft | 183 kts | 9° |
| 2026-05-05 19:59 | 55.83067 | -3.71163 | 3994 ft | 179 kts | 27° |
| 2026-05-05 19:59 | 55.83911 | -3.69681 | 4044 ft | 166 kts | 57° |
| 2026-05-05 19:59 | 55.84556 | -3.68029 | 4033 ft | 158 kts | 57° |
| 2026-05-05 19:59 | 55.85158 | -3.66388 | 3813 ft | 157 kts | 58° |
| 2026-05-05 20:00 | 55.85735 | -3.64727 | 3598 ft | 159 kts | 59° |
| 2026-05-05 20:00 | 55.86291 | -3.63090 | 3399 ft | 154 kts | 60° |
| 2026-05-05 20:00 | 55.86838 | -3.61466 | 3195 ft | 152 kts | 60° |
| 2026-05-05 20:00 | 55.87379 | -3.59858 | 2959 ft | 150 kts | 61° |
| 2026-05-05 20:01 | 55.87907 | -3.58286 | 2769 ft | 148 kts | 62° |
| 2026-05-05 20:01 | 55.88440 | -3.56699 | 2583 ft | 149 kts | 62° |
| 2026-05-05 20:01 | 55.88970 | -3.55123 | 2352 ft | 150 kts | 62° |
| 2026-05-05 20:01 | 55.89501 | -3.53546 | 2156 ft | 147 kts | 62° |
| 2026-05-05 20:02 | 55.90027 | -3.51983 | 1951 ft | 146 kts | 63° |
| 2026-05-05 20:02 | 55.90550 | -3.50427 | 1745 ft | 146 kts | 62° |
| 2026-05-05 20:02 | 55.91073 | -3.48874 | 1534 ft | 144 kts | 62° |
| 2026-05-05 20:02 | 55.91582 | -3.47365 | 1336 ft | 138 kts | 61° |
| 2026-05-05 20:03 | 55.92080 | -3.45887 | 1131 ft | 143 kts | 62° |
| 2026-05-05 20:03 | 55.92573 | -3.44426 | 911 ft | 136 kts | 62° |
| 2026-05-05 20:03 | 55.93063 | -3.42977 | 723 ft | 137 kts | 62° |
| 2026-05-05 20:03 | 55.93563 | -3.41525 | 502 ft | 136 kts | 60° |
| 2026-05-05 20:04 | 55.94037 | -3.40099 | 363 ft | 131 kts | 62° |
| 2026-05-05 20:04 | 55.94504 | -3.38744 | 151 ft | 127 kts | 59° |
| 2026-05-05 20:04 | 55.94903 | -3.37549 | 112 ft | 84 kts | 58° |
| 2026-05-05 20:04 | 55.95130 | -3.36861 | 113 ft | 58 kts | 59° |
| 2026-05-05 20:05 | 55.95257 | -3.36474 | 109 ft | 17 kts | 86° |
| 2026-05-05 20:05 | 55.95208 | -3.36364 | 111 ft | 4 kts | 147° |
| 2026-05-05 20:05 | 55.95198 | -3.36353 | 113 ft | 1 kts | 148° |
| 2026-05-05 20:05 | 55.95190 | -3.36344 | 113 ft | 1 kts | 148° |
| 2026-05-05 20:06 | 55.95186 | -3.36339 | 114 ft | 0 kts | 148° |
| 2026-05-05 20:06 | 55.95181 | -3.36333 | 114 ft | 4 kts | 148° |
| 2026-05-05 20:07 | 55.95135 | -3.36323 | 115 ft | 9 kts | 216° |
| 2026-05-05 20:07 | 55.95061 | -3.36388 | 115 ft | 12 kts | 175° |
| 2026-05-05 20:07 | 55.94993 | -3.36461 | 115 ft | 12 kts | 239° |
| 2026-05-05 20:07 | 55.94951 | -3.36536 | 115 ft | 6 kts | 180° |
| 2026-05-05 20:08 | 55.94917 | -3.36508 | 112 ft | 4 kts | 150° |
| 2026-05-05 20:08 | 55.94906 | -3.36496 | 113 ft | 0 kts | 149° |